createdAt,value
2022-10-07T00:02:13.222Z,97827.88
2022-10-07T00:04:57.819Z,97823.63
2022-10-07T00:07:35.959Z,97829.84
2022-10-07T00:10:17.899Z,97823.25
2022-10-07T00:12:49.943Z,97819.28
2022-10-07T00:15:24.021Z,97813.03
2022-10-07T00:17:55.395Z,97816.00
2022-10-07T00:20:28.302Z,97812.75
2022-10-07T00:23:00.891Z,97809.84
2022-10-07T00:25:30.019Z,97818.06
2022-10-07T00:28:12.726Z,97810.38
2022-10-07T00:30:43.009Z,97810.81
2022-10-07T00:33:17.982Z,97808.19
2022-10-07T00:36:00.426Z,97807.22
2022-10-07T00:38:43.098Z,97793.56
2022-10-07T00:41:29.926Z,97793.81
2022-10-07T00:44:23.344Z,97792.03
2022-10-07T00:46:53.088Z,97795.16
2022-10-07T00:49:27.164Z,97789.47
2022-10-07T00:51:58.907Z,97776.59
2022-10-07T00:54:30.256Z,97788.03
2022-10-07T00:57:09.899Z,97780.78
2022-10-07T00:59:42.847Z,97784.41
2022-10-07T01:02:16.786Z,97779.16
2022-10-07T01:04:54.743Z,97778.16
2022-10-07T01:07:25.164Z,97772.91
2022-10-07T01:09:58.907Z,97770.00
2022-10-07T01:12:48.760Z,97765.56
2022-10-07T01:15:28.042Z,97763.94
2022-10-07T01:18:18.922Z,97758.06
2022-10-07T01:20:59.965Z,97749.53
2022-10-07T01:23:59.632Z,97747.97
2022-10-07T01:26:48.239Z,97751.88
2022-10-07T01:29:33.388Z,97750.53
2022-10-07T01:32:12.693Z,97732.78
2022-10-07T01:34:49.038Z,97733.16
2022-10-07T01:37:38.708Z,97731.25
2022-10-07T01:40:22.531Z,97735.06
2022-10-07T01:43:04.182Z,97732.84
2022-10-07T01:45:45.186Z,97728.25
2022-10-07T01:48:17.826Z,97724.97
2022-10-07T01:50:50.284Z,97727.59
2022-10-07T01:53:54.427Z,97725.63
2022-10-07T01:56:45.168Z,97723.28
2022-10-07T01:59:54.581Z,97718.66
2022-10-07T02:02:47.870Z,97719.47
2022-10-07T02:05:29.303Z,97719.47
2022-10-07T02:08:21.937Z,97719.47
2022-10-07T02:11:04.410Z,97720.28
2022-10-07T02:13:49.843Z,97714.66
2022-10-07T02:16:33.106Z,97710.03
2022-10-07T02:19:06.810Z,97707.78
2022-10-07T02:21:47.342Z,97715.03
2022-10-07T02:24:25.522Z,97711.13
2022-10-07T02:27:12.521Z,97706.97
2022-10-07T02:30:07.276Z,97705.88
2022-10-07T02:32:51.592Z,97699.81
2022-10-07T02:35:38.590Z,97691.66
2022-10-07T02:38:16.591Z,97691.28
2022-10-07T02:41:01.095Z,97686.50
2022-10-07T02:43:39.973Z,97692.13
2022-10-07T02:46:16.288Z,97683.06
2022-10-07T02:49:04.982Z,97686.75
2022-10-07T02:51:41.029Z,97675.28
2022-10-07T02:54:13.414Z,97675.06
2022-10-07T02:56:46.719Z,97673.06
2022-10-07T02:59:23.629Z,97670.44
2022-10-07T03:01:58.316Z,97682.22
2022-10-07T03:04:42.109Z,97675.78
2022-10-07T03:07:12.191Z,97680.69
2022-10-07T03:09:50.445Z,97667.72
2022-10-07T03:12:18.183Z,97677.88
2022-10-07T03:14:50.694Z,97672.63
2022-10-07T03:17:24.560Z,97667.38
2022-10-07T03:20:15.405Z,97668.19
2022-10-07T03:22:47.683Z,97667.38
2022-10-07T03:25:19.742Z,97663.75
2022-10-07T03:27:55.550Z,97662.13
2022-10-07T11:01:24.864Z,97392.09
2022-10-07T11:04:18.251Z,97377.44
2022-10-07T11:06:51.182Z,97383.56
2022-10-07T11:09:31.324Z,97382.44
2022-10-07T11:12:04.828Z,97375.28
2022-10-07T11:14:34.135Z,97364.50
2022-10-07T15:58:54.820Z,97084.91
2022-10-07T16:05:07.778Z,97080.56
